Time;durP1;ratioP1;P1;durP2;ratioP2;P2;SDS_P1;SDS_P2;PMS_P1;PMS_P2;Temp;Humidity;BMP_temperature;BMP_pressure;BME280_temperature;BME280_humidity;BME280_pressure;Samples;Min_cycle;Max_cycle;Signal;HPM_P1;HPM_P2
2021/05/15 00:01:48;;;;;;;;;;;;;;;5.43;100.00;97957.66;5060940;28;20053;-84
2021/05/15 00:04:14;;;;;;;;;;;;;;;5.48;100.00;97955.19;5065053;28;19916;-83
2021/05/15 00:06:40;;;;;;;;;;;;;;;5.50;100.00;97963.09;5070408;28;19916;-83
2021/05/15 00:09:06;;;;;;;;;;;;;;;5.42;100.00;97962.41;5064188;28;20054;-83
2021/05/15 00:11:32;;;;;;;;;;;;;;;5.34;100.00;97960.13;5071190;28;19923;-83
2021/05/15 00:13:58;;;;;;;;;;;;;;;5.29;100.00;97961.38;5077579;28;19916;-83
2021/05/15 00:16:24;;;;;;;;;;;;;;;5.12;100.00;97954.06;5045691;28;19920;-83
2021/05/15 00:18:50;;;;;;;;;;;;;;;4.94;100.00;97952.72;5060023;28;20375;-83
2021/05/15 00:21:16;;;;;;;;;;;;;;;4.98;100.00;97954.22;5056254;28;19959;-83
2021/05/15 00:23:42;;;;;;;;;;;;;;;5.03;100.00;97937.19;5068537;28;20376;-83
2021/05/15 00:26:12;;;;;;;;;;;;;;;5.14;100.00;97931.50;5069895;28;19917;-83
2021/05/15 00:28:38;;;;;;;;;;;;;;;5.18;100.00;97929.50;5065746;28;20015;-84
2021/05/15 00:31:04;;;;;;;;;;;;;;;5.29;100.00;97927.34;5057187;28;20043;-84
2021/05/15 00:33:30;;;;;;;;;;;;;;;5.20;100.00;97927.09;5064182;28;19917;-84
2021/05/15 00:35:56;;;;;;;;;;;;;;;5.37;100.00;97926.06;5074425;28;19929;-84
2021/05/15 00:38:21;;;;;;;;;;;;;;;5.31;100.00;97924.97;5061823;28;20302;-84
2021/05/15 00:40:48;;;;;;;;;;;;;;;5.24;100.00;97917.53;5091650;28;20283;-83
2021/05/15 00:43:14;;;;;;;;;;;;;;;5.37;100.00;97915.00;5074191;28;19916;-83
2021/05/15 00:45:40;;;;;;;;;;;;;;;5.29;100.00;97908.75;5074132;28;19916;-84
2021/05/15 00:48:06;;;;;;;;;;;;;;;5.20;100.00;97911.25;5072519;28;19927;-83
2021/05/15 00:50:32;;;;;;;;;;;;;;;5.25;100.00;97907.25;5064658;28;19917;-84
2021/05/15 00:52:58;;;;;;;;;;;;;;;5.25;100.00;97902.50;5055167;28;19939;-84
2021/05/15 00:55:24;;;;;;;;;;;;;;;5.09;100.00;97902.31;5067632;28;20292;-84
2021/05/15 00:57:52;;;;;;;;;;;;;;;4.91;100.00;97898.97;5068747;28;19922;-83
2021/05/15 01:00:19;;;;;;;;;;;;;;;4.86;100.00;97893.88;5073768;28;19916;-84
2021/05/15 01:02:45;;;;;;;;;;;;;;;4.94;100.00;97891.81;5063205;28;19924;-84
2021/05/15 01:05:12;;;;;;;;;;;;;;;5.08;100.00;97891.63;5067747;28;19916;-84
2021/05/15 01:07:38;;;;;;;;;;;;;;;5.10;100.00;97895.56;5064051;28;20382;-84
2021/05/15 01:10:05;;;;;;;;;;;;;;;5.22;100.00;97897.78;5072030;28;19917;-84
2021/05/15 01:12:30;;;;;;;;;;;;;;;5.22;100.00;97897.00;5064556;28;19917;-84
2021/05/15 01:14:57;;;;;;;;;;;;;;;5.07;100.00;97893.63;5055644;28;19925;-83
2021/05/15 01:17:23;;;;;;;;;;;;;;;4.91;100.00;97887.91;5076088;28;19923;-84
2021/05/15 01:19:49;;;;;;;;;;;;;;;4.82;100.00;97884.84;5078201;28;19939;-84
2021/05/15 01:22:16;;;;;;;;;;;;;;;4.91;100.00;97881.56;5053449;28;20372;-83
2021/05/15 01:24:43;;;;;;;;;;;;;;;4.58;100.00;97883.16;5053174;28;19917;-84
2021/05/15 01:27:10;;;;;;;;;;;;;;;4.68;100.00;97876.69;5037025;28;19917;-84
2021/05/15 01:29:36;;;;;;;;;;;;;;;4.74;100.00;97875.06;5054112;28;19924;-84
2021/05/15 01:32:02;;;;;;;;;;;;;;;4.92;100.00;97872.84;5053174;28;20287;-84
2021/05/15 01:34:28;;;;;;;;;;;;;;;4.84;100.00;97870.59;5054679;28;19921;-84
2021/05/15 01:36:54;;;;;;;;;;;;;;;4.85;100.00;97874.91;5052882;28;19924;-85
2021/05/15 01:39:20;;;;;;;;;;;;;;;5.01;100.00;97870.34;5053187;28;19917;-85
2021/05/15 01:41:46;;;;;;;;;;;;;;;5.22;100.00;97880.38;5053155;28;20268;-85
2021/05/15 01:44:12;;;;;;;;;;;;;;;5.06;100.00;97883.75;5052802;28;19931;-85
2021/05/15 01:46:38;;;;;;;;;;;;;;;5.11;100.00;97888.84;5052827;28;19967;-85
2021/05/15 01:49:05;;;;;;;;;;;;;;;5.15;100.00;97886.78;5053047;28;19916;-85
2021/05/15 01:51:31;;;;;;;;;;;;;;;5.19;100.00;97884.78;5036123;28;19924;-85
2021/05/15 01:53:57;;;;;;;;;;;;;;;5.11;100.00;97874.19;5052564;28;19920;-85
2021/05/15 01:56:25;;;;;;;;;;;;;;;5.14;100.00;97874.16;5036169;28;19921;-85
2021/05/15 01:58:51;;;;;;;;;;;;;;;5.21;100.00;97874.06;5051581;28;20439;-85
2021/05/15 02:01:18;;;;;;;;;;;;;;;5.23;100.00;97882.75;5052935;28;20062;-85
2021/05/15 02:03:44;;;;;;;;;;;;;;;5.28;100.00;97882.28;5052647;28;19916;-84
2021/05/15 02:06:10;;;;;;;;;;;;;;;5.30;100.00;97881.88;5032699;28;19917;-84
2021/05/15 02:08:37;;;;;;;;;;;;;;;5.19;100.00;97876.47;5047780;28;19917;-84
2021/05/15 02:11:03;;;;;;;;;;;;;;;5.09;100.00;97877.38;5052800;28;20015;-85
2021/05/15 02:13:31;;;;;;;;;;;;;;;5.08;100.00;97880.56;5052629;28;19917;-84
2021/05/15 02:15:57;;;;;;;;;;;;;;;5.33;100.00;97881.78;5052866;28;20279;-84
2021/05/15 02:18:23;;;;;;;;;;;;;;;5.15;100.00;97872.94;5052997;28;19916;-84
2021/05/15 02:20:50;;;;;;;;;;;;;;;5.01;100.00;97877.91;5052453;28;19954;-85
2021/05/15 02:23:16;;;;;;;;;;;;;;;5.07;100.00;97867.94;5032582;28;19927;-84
2021/05/15 02:25:42;;;;;;;;;;;;;;;5.16;100.00;97870.97;5048388;28;19917;-84
2021/05/15 02:28:09;;;;;;;;;;;;;;;5.02;100.00;97866.41;5052377;28;20008;-84
2021/05/15 02:30:35;;;;;;;;;;;;;;;5.05;100.00;97864.78;5052372;28;19924;-84
2021/05/15 02:33:02;;;;;;;;;;;;;;;5.15;100.00;97870.19;5052554;28;19916;-84
2021/05/15 02:35:28;;;;;;;;;;;;;;;5.13;100.00;97871.81;5052203;28;19921;-84
2021/05/15 02:37:55;;;;;;;;;;;;;;;4.98;100.00;97865.66;5052192;28;19923;-84
2021/05/15 02:40:21;;;;;;;;;;;;;;;5.31;100.00;97864.84;5052622;28;19983;-84
2021/05/15 02:42:49;;;;;;;;;;;;;;;5.16;100.00;97859.91;5052075;28;19956;-84
2021/05/15 02:45:16;;;;;;;;;;;;;;;5.15;100.00;97856.34;5053395;28;19921;-84
2021/05/15 02:47:42;;;;;;;;;;;;;;;5.13;100.00;97861.53;5035688;28;19916;-84
2021/05/15 02:50:11;;;;;;;;;;;;;;;5.05;100.00;97857.28;5052085;28;20376;-84
2021/05/15 02:52:38;;;;;;;;;;;;;;;5.08;100.00;97852.88;5052303;28;19923;-84
2021/05/15 02:55:08;;;;;;;;;;;;;;;5.00;100.00;97851.41;5052079;28;19950;-85
2021/05/15 02:57:35;;;;;;;;;;;;;;;5.13;100.00;97849.66;5051802;28;19924;-84
2021/05/15 03:00:01;;;;;;;;;;;;;;;5.24;100.00;97848.28;5051742;28;19928;-84
2021/05/15 03:02:27;;;;;;;;;;;;;;;5.32;100.00;97841.47;5069035;28;19917;-84
2021/05/15 03:04:52;;;;;;;;;;;;;;;5.59;100.00;97844.22;5053703;28;20276;-84
2021/05/15 03:07:18;;;;;;;;;;;;;;;5.48;100.00;97847.16;5052166;28;20054;-84
2021/05/15 03:09:45;;;;;;;;;;;;;;;5.45;100.00;97847.97;5037261;28;19916;-84
2021/05/15 03:12:13;;;;;;;;;;;;;;;5.56;100.00;97845.84;5055591;28;20414;-84
2021/05/15 03:14:39;;;;;;;;;;;;;;;5.33;100.00;97842.25;5056875;28;19921;-84
2021/05/15 03:17:05;;;;;;;;;;;;;;;5.24;100.00;97842.75;5057064;28;19917;-84
2021/05/15 03:19:31;;;;;;;;;;;;;;;5.44;100.00;97842.84;5055704;28;19916;-85
2021/05/15 03:21:57;;;;;;;;;;;;;;;5.74;100.00;97847.56;5055502;28;19928;-84
2021/05/15 03:24:23;;;;;;;;;;;;;;;5.48;100.00;97843.59;5056867;28;19917;-84
2021/05/15 03:26:49;;;;;;;;;;;;;;;5.50;100.00;97841.97;5035966;28;19918;-84
2021/05/15 03:29:15;;;;;;;;;;;;;;;5.55;100.00;97838.75;5055258;28;19943;-84
2021/05/15 03:31:41;;;;;;;;;;;;;;;5.50;100.00;97841.19;5055777;28;19966;-84
2021/05/15 03:34:08;;;;;;;;;;;;;;;5.48;100.00;97847.16;5056668;28;19975;-85
2021/05/15 03:36:34;;;;;;;;;;;;;;;5.49;100.00;97837.66;5055233;28;20004;-85
2021/05/15 03:39:01;;;;;;;;;;;;;;;6.05;100.00;97844.28;5055367;28;19917;-84
2021/05/15 03:41:27;;;;;;;;;;;;;;;6.32;100.00;97853.28;5038744;28;19916;-84
2021/05/15 03:44:00;;;;;;;;;;;;;;;6.12;100.00;97843.38;5055416;28;20435;-84
2021/05/15 03:46:25;;;;;;;;;;;;;;;6.16;100.00;97839.34;5055428;28;19974;-84
2021/05/15 03:48:52;;;;;;;;;;;;;;;6.04;100.00;97831.63;5055587;28;19952;-84
2021/05/15 03:51:18;;;;;;;;;;;;;;;5.99;100.00;97828.53;5054985;28;19964;-84
2021/05/15 03:53:44;;;;;;;;;;;;;;;5.87;100.00;97829.16;5039153;28;19917;-85
2021/05/15 03:56:10;;;;;;;;;;;;;;;5.95;100.00;97834.16;5038247;28;19990;-85
2021/05/15 03:58:36;;;;;;;;;;;;;;;6.01;100.00;97828.91;5055859;28;20007;-84
2021/05/15 04:01:02;;;;;;;;;;;;;;;6.00;100.00;97828.13;5055018;28;19939;-84
2021/05/15 04:03:29;;;;;;;;;;;;;;;6.08;100.00;97831.53;5055095;28;19917;-84
2021/05/15 04:05:55;;;;;;;;;;;;;;;6.03;100.00;97830.03;5056633;28;19916;-84
2021/05/15 04:08:21;;;;;;;;;;;;;;;6.15;100.00;97839.75;5055629;28;20280;-84
2021/05/15 04:10:46;;;;;;;;;;;;;;;6.10;100.00;97829.13;5038159;28;20383;-84
2021/05/15 04:16:00;;;;;;;;;;;;;;;6.14;100.00;97822.31;5055544;28;19921;-84
2021/05/15 04:18:31;;;;;;;;;;;;;;;6.26;100.00;97827.25;5054571;28;19920;-84
2021/05/15 04:20:57;;;;;;;;;;;;;;;6.42;100.00;97827.31;5041158;28;20011;-85
2021/05/15 04:23:23;;;;;;;;;;;;;;;6.51;100.00;97832.34;5054688;28;20431;-85
2021/05/15 04:25:49;;;;;;;;;;;;;;;6.57;100.00;97827.84;5054343;28;19917;-84
2021/05/15 04:28:16;;;;;;;;;;;;;;;6.67;100.00;97835.19;5054683;28;19939;-84
2021/05/15 04:30:42;;;;;;;;;;;;;;;6.66;100.00;97833.63;5054329;28;19924;-84
2021/05/15 04:33:08;;;;;;;;;;;;;;;6.80;100.00;97831.31;5021178;28;19917;-84
2021/05/15 04:35:34;;;;;;;;;;;;;;;7.06;100.00;97826.81;5055332;28;19982;-84
2021/05/15 04:38:03;;;;;;;;;;;;;;;6.69;100.00;97835.53;5054179;28;19917;-84
2021/05/15 04:40:29;;;;;;;;;;;;;;;6.63;100.00;97826.16;5054506;28;19924;-84
2021/05/15 04:42:56;;;;;;;;;;;;;;;6.56;100.00;97823.50;5055570;28;19920;-84
2021/05/15 04:45:22;;;;;;;;;;;;;;;6.62;100.00;97810.72;5054031;28;19916;-84
2021/05/15 04:47:48;;;;;;;;;;;;;;;6.58;100.00;97815.53;5054199;28;19916;-85
2021/05/15 04:50:14;;;;;;;;;;;;;;;6.61;100.00;97823.00;5054103;28;19923;-84
2021/05/15 04:52:40;;;;;;;;;;;;;;;6.69;100.00;97816.13;5017303;28;19917;-84
2021/05/15 04:55:07;;;;;;;;;;;;;;;6.67;100.00;97821.28;5053000;28;20378;-84
2021/05/15 04:57:33;;;;;;;;;;;;;;;6.74;100.00;97815.63;5053783;28;19924;-84
2021/05/15 04:59:59;;;;;;;;;;;;;;;6.71;100.00;97820.00;5053931;28;19920;-84
2021/05/15 05:02:24;;;;;;;;;;;;;;;6.71;100.00;97827.56;5034283;28;19917;-84
2021/05/15 05:04:50;;;;;;;;;;;;;;;6.77;100.00;97823.09;5048636;28;20350;-84
2021/05/15 05:07:16;;;;;;;;;;;;;;;6.77;100.00;97826.63;5036660;28;19928;-84
2021/05/15 05:09:42;;;;;;;;;;;;;;;6.72;100.00;97838.25;5054062;28;19917;-84
2021/05/15 05:12:08;;;;;;;;;;;;;;;6.73;100.00;97842.59;5053433;28;19943;-84
2021/05/15 05:14:35;;;;;;;;;;;;;;;6.81;100.00;97841.25;5053465;28;19921;-84
2021/05/15 05:17:01;;;;;;;;;;;;;;;6.86;100.00;97842.72;5053969;28;20360;-84
2021/05/15 05:19:28;;;;;;;;;;;;;;;6.83;100.00;97849.16;5033594;28;19959;-85
2021/05/15 05:21:55;;;;;;;;;;;;;;;6.91;100.00;97856.09;5048644;28;19917;-84
2021/05/15 05:24:21;;;;;;;;;;;;;;;6.92;100.00;97864.00;5053415;28;20380;-85
2021/05/15 05:26:47;;;;;;;;;;;;;;;6.97;100.00;97859.94;5053310;28;19916;-85
2021/05/15 05:29:13;;;;;;;;;;;;;;;7.03;100.00;97872.09;5053403;28;19962;-84
2021/05/15 05:31:41;;;;;;;;;;;;;;;7.10;100.00;97874.75;5053402;28;19917;-85
2021/05/15 05:34:07;;;;;;;;;;;;;;;7.15;100.00;97885.34;5036524;28;20346;-85
2021/05/15 05:36:34;;;;;;;;;;;;;;;7.22;100.00;97888.00;5036315;28;20376;-85
2021/05/15 05:39:00;;;;;;;;;;;;;;;7.33;100.00;97894.88;5036563;28;20338;-81
2021/05/15 05:41:26;;;;;;;;;;;;;;;7.30;100.00;97900.50;5054101;28;19921;-82
2021/05/15 05:43:52;;;;;;;;;;;;;;;7.35;100.00;97908.34;5054341;28;19948;-82
2021/05/15 05:46:18;;;;;;;;;;;;;;;7.34;100.00;97913.13;5054087;28;19963;-81
2021/05/15 05:48:44;;;;;;;;;;;;;;;7.26;100.00;97916.47;5053853;28;19916;-79
2021/05/15 05:51:10;;;;;;;;;;;;;;;7.26;100.00;97938.69;5053550;28;20425;-79
2021/05/15 05:53:36;;;;;;;;;;;;;;;7.38;100.00;97926.94;5052195;28;19920;-77
2021/05/15 05:56:02;;;;;;;;;;;;;;;7.49;100.00;97935.81;5052625;28;20268;-78
2021/05/15 05:58:28;;;;;;;;;;;;;;;7.47;100.00;97943.81;5052747;28;19921;-78
2021/05/15 06:00:54;;;;;;;;;;;;;;;7.35;100.00;97944.47;5052180;28;19928;-79
2021/05/15 06:03:21;;;;;;;;;;;;;;;7.38;100.00;97960.28;5052611;28;20438;-78
2021/05/15 06:05:47;;;;;;;;;;;;;;;7.34;100.00;97956.78;5052887;28;19947;-78
2021/05/15 06:08:13;;;;;;;;;;;;;;;7.44;100.00;97966.91;5053197;28;20356;-78
2021/05/15 06:10:39;;;;;;;;;;;;;;;7.39;100.00;97972.97;5052908;28;20012;-78
2021/05/15 06:13:06;;;;;;;;;;;;;;;7.32;100.00;97967.53;5053209;28;20323;-78
2021/05/15 06:15:32;;;;;;;;;;;;;;;7.38;100.00;97976.19;5052919;28;19982;-78
2021/05/15 06:17:58;;;;;;;;;;;;;;;7.34;100.00;97979.03;5053184;28;19916;-78
2021/05/15 06:20:24;;;;;;;;;;;;;;;7.35;100.00;97980.59;5052437;28;19916;-84
2021/05/15 06:22:50;;;;;;;;;;;;;;;7.27;100.00;97990.25;5052138;28;19916;-84
2021/05/15 06:25:16;;;;;;;;;;;;;;;7.35;100.00;97997.25;5051568;28;19928;-83
2021/05/15 06:27:42;;;;;;;;;;;;;;;7.37;100.00;97989.28;5050773;28;19964;-83
2021/05/15 06:30:09;;;;;;;;;;;;;;;7.37;100.00;97994.84;5052851;28;20316;-83
2021/05/15 06:32:35;;;;;;;;;;;;;;;7.43;100.00;98001.47;5053879;28;19920;-83
2021/05/15 06:35:01;;;;;;;;;;;;;;;7.45;100.00;97993.50;5053719;28;20019;-83
2021/05/15 06:37:26;;;;;;;;;;;;;;;7.57;100.00;98008.72;5052421;28;19916;-84
2021/05/15 06:39:52;;;;;;;;;;;;;;;7.58;100.00;98019.41;5053740;28;19917;-83
2021/05/15 06:42:18;;;;;;;;;;;;;;;7.69;100.00;98020.00;5048248;28;19962;-83
2021/05/15 06:44:44;;;;;;;;;;;;;;;7.95;100.00;98038.47;5044684;28;19966;-84
2021/05/15 06:47:14;;;;;;;;;;;;;;;7.86;100.00;98040.28;5053742;28;19923;-84
2021/05/15 06:49:41;;;;;;;;;;;;;;;7.97;100.00;98044.41;5056486;28;19924;-83
2021/05/15 06:52:06;;;;;;;;;;;;;;;8.09;100.00;98052.06;5049578;28;19917;-83
2021/05/15 06:54:32;;;;;;;;;;;;;;;8.18;100.00;98057.84;5050500;28;19917;-84
2021/05/15 06:56:58;;;;;;;;;;;;;;;8.29;100.00;98063.19;5051367;28;20371;-87
2021/05/15 06:59:24;;;;;;;;;;;;;;;8.15;100.00;98089.31;5059517;28;20008;-83
2021/05/15 07:01:50;;;;;;;;;;;;;;;8.05;100.00;98097.88;5059286;28;19917;-85
2021/05/15 07:04:16;;;;;;;;;;;;;;;8.15;100.00;98102.44;5061692;28;20395;-85
2021/05/15 07:06:44;;;;;;;;;;;;;;;8.24;100.00;98120.13;5057093;28;19959;-85
2021/05/15 07:09:10;;;;;;;;;;;;;;;8.40;100.00;98142.47;5058179;28;19923;-85
2021/05/15 07:11:36;;;;;;;;;;;;;;;8.32;100.00;98154.97;5039316;28;19921;-84
2021/05/15 07:14:02;;;;;;;;;;;;;;;8.10;100.00;98166.94;5042944;28;19916;-84
2021/05/15 07:16:29;;;;;;;;;;;;;;;8.09;100.00;98174.50;5037570;28;19921;-87
2021/05/15 07:18:54;;;;;;;;;;;;;;;8.07;100.00;98192.84;5050201;28;19942;-85
2021/05/15 07:21:20;;;;;;;;;;;;;;;8.01;100.00;98203.66;5070344;28;19917;-83
2021/05/15 07:23:46;;;;;;;;;;;;;;;8.06;100.00;98208.72;5055731;28;19946;-83
2021/05/15 07:26:12;;;;;;;;;;;;;;;8.01;100.00;98200.09;5055620;28;20311;-84
2021/05/15 07:28:38;;;;;;;;;;;;;;;8.10;100.00;98212.25;5059458;28;19932;-84
2021/05/15 07:31:04;;;;;;;;;;;;;;;8.13;100.00;98208.59;5056328;28;19917;-85
2021/05/15 07:33:30;;;;;;;;;;;;;;;8.31;100.00;98213.84;5038354;28;19942;-85
2021/05/15 07:35:56;;;;;;;;;;;;;;;8.63;100.00;98222.31;5038342;28;19921;-84
2021/05/15 07:38:22;;;;;;;;;;;;;;;8.99;100.00;98237.00;5054307;28;19923;-84
2021/05/15 07:40:49;;;;;;;;;;;;;;;9.19;100.00;98350.00;5055094;28;19952;-84
2021/05/15 07:43:22;;;;;;;;;;;;;;;9.13;100.00;98348.94;5054629;28;20011;-84
2021/05/15 07:45:48;;;;;;;;;;;;;;;9.13;100.00;98350.97;5054723;28;19921;-84
2021/05/15 07:48:14;;;;;;;;;;;;;;;8.99;100.00;98351.25;5036760;28;19971;-84
2021/05/15 07:50:40;;;;;;;;;;;;;;;8.69;100.00;98341.09;5055895;28;19917;-84
2021/05/15 07:53:06;;;;;;;;;;;;;;;8.83;100.00;98342.84;5037681;28;19921;-84
2021/05/15 07:55:33;;;;;;;;;;;;;;;8.78;100.00;98337.75;5036807;28;20257;-84
2021/05/15 07:57:59;;;;;;;;;;;;;;;8.83;100.00;98340.81;5065931;28;19923;-85
2021/05/15 08:00:25;;;;;;;;;;;;;;;8.83;100.00;98337.28;5048302;28;19924;-85
2021/05/15 08:02:51;;;;;;;;;;;;;;;9.12;100.00;98336.22;5050330;28;19963;-85
2021/05/15 08:05:17;;;;;;;;;;;;;;;9.06;100.00;98335.16;5052924;28;19951;-85
2021/05/15 08:07:43;;;;;;;;;;;;;;;9.03;100.00;98338.81;5052148;28;20593;-85
2021/05/15 08:10:10;;;;;;;;;;;;;;;9.01;100.00;98334.91;5052608;28;19917;-84
2021/05/15 08:12:36;;;;;;;;;;;;;;;9.28;100.00;98329.91;5053289;28;19917;-84
2021/05/15 08:15:03;;;;;;;;;;;;;;;9.11;100.00;98323.53;5051155;28;19921;-84
2021/05/15 08:17:33;;;;;;;;;;;;;;;9.19;100.00;98316.56;5051212;28;19920;-85
2021/05/15 08:20:03;;;;;;;;;;;;;;;9.04;100.00;98311.75;5053600;28;19942;-85
2021/05/15 08:22:29;;;;;;;;;;;;;;;8.82;100.00;98299.47;5051739;28;19916;-85
2021/05/15 08:24:56;;;;;;;;;;;;;;;8.93;100.00;98291.69;5052626;28;19970;-84
2021/05/15 08:27:26;;;;;;;;;;;;;;;9.06;100.00;98290.56;5051650;28;19916;-84
2021/05/15 08:29:52;;;;;;;;;;;;;;;9.01;100.00;98268.78;5052157;28;19952;-85
2021/05/15 08:32:19;;;;;;;;;;;;;;;9.11;100.00;98267.78;5034747;28;19917;-84
2021/05/15 08:34:46;;;;;;;;;;;;;;;9.42;100.00;98267.47;5054183;28;19920;-84
2021/05/15 08:37:12;;;;;;;;;;;;;;;9.38;100.00;98258.38;5053682;28;19917;-84
2021/05/15 08:39:38;;;;;;;;;;;;;;;9.39;100.00;98244.00;5052504;28;19958;-84
2021/05/15 08:42:04;;;;;;;;;;;;;;;9.40;100.00;98228.06;5060132;28;19947;-84
2021/05/15 08:44:31;;;;;;;;;;;;;;;9.58;100.00;98217.25;5059099;28;19917;-83
2021/05/15 08:46:57;;;;;;;;;;;;;;;9.72;100.00;98206.53;5050712;28;19921;-84
2021/05/15 08:49:24;;;;;;;;;;;;;;;9.64;100.00;98182.03;5052166;28;19923;-84
2021/05/15 08:51:53;;;;;;;;;;;;;;;10.03;100.00;98165.81;5062797;28;19959;-84
2021/05/15 08:54:22;;;;;;;;;;;;;;;10.16;100.00;98129.63;5051052;28;19923;-84
2021/05/15 08:56:50;;;;;;;;;;;;;;;10.50;100.00;98121.41;5049337;28;19963;-82
2021/05/15 08:59:16;;;;;;;;;;;;;;;10.48;100.00;98102.28;5051720;28;19925;-83
2021/05/15 09:01:43;;;;;;;;;;;;;;;10.64;100.00;98093.03;5057191;28;20391;-85
2021/05/15 09:04:09;;;;;;;;;;;;;;;10.75;100.00;98076.72;5051176;28;19917;-85
2021/05/15 09:06:40;;;;;;;;;;;;;;;11.04;100.00;98068.19;5058035;28;19933;-85
2021/05/15 09:09:08;;;;;;;;;;;;;;;10.82;100.00;98032.56;5057383;28;19932;-85
2021/05/15 09:11:36;;;;;;;;;;;;;;;10.81;100.00;97996.69;5058990;28;19935;-85
2021/05/15 09:14:03;;;;;;;;;;;;;;;10.78;100.00;97978.03;5057181;28;19932;-85
2021/05/15 09:16:30;;;;;;;;;;;;;;;10.74;100.00;97941.03;5054431;28;19931;-84
2021/05/15 09:19:05;;;;;;;;;;;;;;;11.00;100.00;97903.41;5052612;28;19925;-84
2021/05/15 09:21:34;;;;;;;;;;;;;;;10.37;100.00;97783.56;5069091;28;19932;-83
2021/05/15 09:24:05;;;;;;;;;;;;;;;10.48;100.00;97735.72;5053106;28;20364;-84
2021/05/15 09:26:32;;;;;;;;;;;;;;;10.90;100.00;97706.94;5053377;28;19925;-82
2021/05/15 09:28:59;;;;;;;;;;;;;;;10.83;100.00;97672.91;5054405;28;19924;-83
2021/05/15 09:31:31;;;;;;;;;;;;;;;11.20;100.00;97660.66;5053419;28;19931;-83
2021/05/15 09:33:58;;;;;;;;;;;;;;;11.67;100.00;97644.31;5037005;28;19951;-83
2021/05/15 09:36:30;;;;;;;;;;;;;;;11.54;100.00;97626.09;5052856;28;20431;-84
2021/05/15 09:39:00;;;;;;;;;;;;;;;11.93;100.00;97606.41;5054425;28;20011;-84
2021/05/15 09:41:31;;;;;;;;;;;;;;;11.58;100.00;97573.56;5054196;28;19925;-83
2021/05/15 09:43:59;;;;;;;;;;;;;;;11.57;100.00;97555.22;5052844;28;20545;-84
2021/05/15 09:46:27;;;;;;;;;;;;;;;11.40;100.00;97535.19;5053194;28;19932;-83
2021/05/15 09:48:55;;;;;;;;;;;;;;;11.15;100.00;97510.28;5052593;28;19925;-83
2021/05/15 09:51:22;;;;;;;;;;;;;;;11.21;100.00;97491.66;5052849;28;19948;-83
2021/05/15 09:53:49;;;;;;;;;;;;;;;11.34;100.00;97447.56;5051611;28;19925;-83
2021/05/15 09:56:30;;;;;;;;;;;;;;;11.42;100.00;97448.03;5036079;28;19933;-83
2021/05/15 09:58:57;;;;;;;;;;;;;;;11.33;100.00;97443.19;5050692;28;19928;-83
2021/05/15 10:01:24;;;;;;;;;;;;;;;11.17;100.00;97429.56;5054111;28;19925;-83
2021/05/15 10:03:59;;;;;;;;;;;;;;;11.05;100.00;97430.50;5069229;28;20341;-83
2021/05/15 10:06:26;;;;;;;;;;;;;;;10.82;100.00;97433.88;5036964;28;20020;-83
2021/05/15 10:08:53;;;;;;;;;;;;;;;10.59;100.00;97432.44;5052518;28;19925;-83
2021/05/15 10:11:21;;;;;;;;;;;;;;;10.54;100.00;97433.06;5069081;28;19932;-83
2021/05/15 10:13:50;;;;;;;;;;;;;;;10.37;100.00;97436.59;5053602;28;19981;-83
2021/05/15 10:16:18;;;;;;;;;;;;;;;10.23;100.00;97437.16;5052594;28;19925;-83
2021/05/15 10:18:45;;;;;;;;;;;;;;;10.05;100.00;97432.25;5035336;28;19968;-83
2021/05/15 10:21:12;;;;;;;;;;;;;;;9.62;100.00;97437.16;5054054;28;19932;-83
2021/05/15 10:23:44;;;;;;;;;;;;;;;9.59;100.00;97438.06;5052536;28;20019;-83
2021/05/15 10:26:19;;;;;;;;;;;;;;;9.70;100.00;97441.22;5053724;28;19928;-83
2021/05/15 10:28:57;;;;;;;;;;;;;;;9.72;100.00;97438.75;5051956;28;20300;-83
2021/05/15 10:31:35;;;;;;;;;;;;;;;10.06;100.00;97438.59;5051700;28;19924;-83
2021/05/15 10:34:03;;;;;;;;;;;;;;;10.25;100.00;97440.28;5052812;28;19975;-82
2021/05/15 10:36:30;;;;;;;;;;;;;;;10.22;100.00;97436.38;5052553;28;19987;-84
2021/05/15 10:38:57;;;;;;;;;;;;;;;10.13;100.00;97444.69;5042961;28;19967;-84
2021/05/15 10:41:25;;;;;;;;;;;;;;;10.02;100.00;97443.56;5066691;28;19994;-83
2021/05/15 10:43:53;;;;;;;;;;;;;;;10.35;100.00;97427.88;5052928;28;20016;-84
2021/05/15 10:46:25;;;;;;;;;;;;;;;10.16;100.00;97437.44;5052212;28;19925;-84
2021/05/15 10:48:56;;;;;;;;;;;;;;;10.26;100.00;97423.06;5051728;28;19925;-81
2021/05/15 10:51:34;;;;;;;;;;;;;;;10.74;100.00;97425.03;5051936;28;20372;-81
2021/05/15 10:54:02;;;;;;;;;;;;;;;11.10;100.00;97421.50;5052158;28;20364;-81
2021/05/15 10:56:39;;;;;;;;;;;;;;;11.83;100.00;97414.56;5052110;28;19933;-81
2021/05/15 10:59:10;;;;;;;;;;;;;;;12.22;100.00;97412.72;5052157;28;20063;-82
2021/05/15 11:01:48;;;;;;;;;;;;;;;12.41;100.00;97400.94;5052992;28;19936;-82
2021/05/15 11:04:16;;;;;;;;;;;;;;;12.41;100.00;97400.94;5051781;28;20066;-82
2021/05/15 11:06:54;;;;;;;;;;;;;;;12.18;100.00;97398.88;5052900;28;20376;-80
2021/05/15 11:09:22;;;;;;;;;;;;;;;12.15;100.00;97387.84;5053012;28;19933;-80
2021/05/15 11:11:50;;;;;;;;;;;;;;;11.94;100.00;97384.06;5033679;28;20024;-81
2021/05/15 11:14:24;;;;;;;;;;;;;;;11.27;100.00;97380.78;5073475;28;20002;-80
2021/05/15 11:17:04;;;;;;;;;;;;;;;10.67;100.00;97391.03;5050998;28;19929;-82
2021/05/15 11:19:32;;;;;;;;;;;;;;;10.37;100.00;97391.91;5057376;28;20458;-82
2021/05/15 11:21:59;;;;;;;;;;;;;;;10.21;100.00;97390.16;5049506;28;20388;-82
2021/05/15 11:24:31;;;;;;;;;;;;;;;10.11;100.00;97396.19;5054147;28;20016;-82
2021/05/15 11:27:09;;;;;;;;;;;;;;;10.17;100.00;97392.34;5052340;28;19925;-83
2021/05/15 11:29:37;;;;;;;;;;;;;;;10.20;100.00;97399.00;5048812;28;19924;-82
2021/05/15 11:32:05;;;;;;;;;;;;;;;10.19;100.00;97387.06;5054831;28;19935;-82
2021/05/15 11:34:33;;;;;;;;;;;;;;;10.40;100.00;97391.00;5056683;28;20005;-81
2021/05/15 11:37:00;;;;;;;;;;;;;;;10.58;100.00;97396.59;5055648;28;19925;-80
2021/05/15 11:39:27;;;;;;;;;;;;;;;11.03;100.00;97382.66;5035784;28;20312;-80
2021/05/15 11:42:01;;;;;;;;;;;;;;;11.41;100.00;97377.34;5035706;28;19929;-80
2021/05/15 11:44:29;;;;;;;;;;;;;;;11.57;100.00;97376.22;5049524;28;20015;-80
2021/05/15 11:46:57;;;;;;;;;;;;;;;11.38;100.00;97395.06;5055136;28;20040;-79
2021/05/15 11:49:24;;;;;;;;;;;;;;;11.47;100.00;97380.28;5056605;28;20015;-80
2021/05/15 11:51:58;;;;;;;;;;;;;;;11.21;100.00;97385.44;5054762;28;19924;-79
2021/05/15 11:54:26;;;;;;;;;;;;;;;11.19;100.00;97379.56;5051941;28;19925;-80
2021/05/15 11:56:56;;;;;;;;;;;;;;;10.96;100.00;97372.56;5053907;28;19947;-80
2021/05/15 11:59:24;;;;;;;;;;;;;;;10.38;100.00;97376.72;5050059;28;19974;-80
2021/05/15 12:01:52;;;;;;;;;;;;;;;10.50;100.00;97378.59;5055071;28;19925;-79
2021/05/15 12:04:30;;;;;;;;;;;;;;;10.47;100.00;97369.13;5054716;28;19931;-80
2021/05/15 12:06:58;;;;;;;;;;;;;;;10.64;100.00;97372.41;5054622;28;20016;-80
2021/05/15 12:09:30;;;;;;;;;;;;;;;10.68;100.00;97373.03;5021826;28;19925;-80
2021/05/15 12:11:58;;;;;;;;;;;;;;;10.74;100.00;97365.59;5055712;28;19935;-79
2021/05/15 12:14:25;;;;;;;;;;;;;;;11.03;100.00;97371.47;5055849;28;19925;-80
2021/05/15 12:16:53;;;;;;;;;;;;;;;11.20;100.00;97363.53;5054398;28;20391;-80
2021/05/15 12:19:23;;;;;;;;;;;;;;;11.37;100.00;97362.75;5055764;28;19928;-80
2021/05/15 12:21:54;;;;;;;;;;;;;;;11.49;100.00;97364.59;5055666;28;19931;-80
2021/05/15 12:24:22;;;;;;;;;;;;;;;11.61;100.00;97358.03;5041049;28;19924;-80
2021/05/15 12:26:49;;;;;;;;;;;;;;;11.62;100.00;97350.38;5071120;28;19932;-80
2021/05/15 12:29:16;;;;;;;;;;;;;;;11.97;100.00;97348.72;5070830;28;19928;-82
2021/05/15 12:31:43;;;;;;;;;;;;;;;11.82;100.00;97343.06;5055701;28;20266;-80
2021/05/15 12:34:11;;;;;;;;;;;;;;;11.99;100.00;97341.44;5054578;28;19978;-80
2021/05/15 12:36:39;;;;;;;;;;;;;;;11.86;100.00;97348.50;5053714;28;19928;-80
2021/05/15 12:39:07;;;;;;;;;;;;;;;11.37;100.00;97329.19;5055597;28;19925;-80
2021/05/15 12:41:35;;;;;;;;;;;;;;;11.62;100.00;97333.59;5053598;28;20283;-80
2021/05/15 12:44:02;;;;;;;;;;;;;;;11.64;100.00;97334.72;5054103;28;19972;-80
2021/05/15 12:46:31;;;;;;;;;;;;;;;11.65;100.00;97327.88;5049796;28;19925;-79